createdAt,value
2022-09-24T00:02:02.844Z,4.60
2022-09-24T00:04:29.325Z,4.60
2022-09-24T00:06:55.813Z,4.60
2022-09-24T00:09:22.495Z,4.60
2022-09-24T00:11:49.010Z,4.60
2022-09-24T00:14:15.537Z,4.60
2022-09-24T00:16:42.075Z,4.60
2022-09-24T00:19:08.637Z,4.60
2022-09-24T00:21:35.184Z,4.60
2022-09-24T00:24:01.797Z,4.60
2022-09-24T00:26:28.456Z,4.60
2022-09-24T00:28:54.985Z,4.60
2022-09-24T00:31:21.582Z,4.60
2022-09-24T00:33:48.098Z,4.60
2022-09-24T00:36:14.639Z,4.60
2022-09-24T00:38:41.589Z,4.60
2022-09-24T00:41:08.098Z,4.60
2022-09-24T00:43:34.627Z,4.60
2022-09-24T00:46:01.202Z,4.60
2022-09-24T00:48:27.817Z,4.50
2022-09-24T00:50:54.533Z,4.50
2022-09-24T00:53:21.051Z,4.50
2022-09-24T00:55:47.522Z,4.50
2022-09-24T00:58:14.062Z,4.50
2022-09-24T01:00:40.588Z,4.50
2022-09-24T01:03:07.203Z,4.50
2022-09-24T01:05:33.770Z,4.50
2022-09-24T01:08:00.262Z,4.50
2022-09-24T01:10:26.819Z,4.60
2022-09-24T01:12:53.354Z,4.60
2022-09-24T01:15:19.866Z,4.60
2022-09-24T01:17:46.397Z,4.60
2022-09-24T01:20:12.913Z,4.60
2022-09-24T01:22:39.429Z,4.60
2022-09-24T01:25:05.992Z,4.60
2022-09-24T01:27:32.514Z,4.60
2022-09-24T01:29:59.027Z,4.60
2022-09-24T01:32:30.224Z,4.60
2022-09-24T01:34:58.734Z,4.60
2022-09-24T01:37:25.280Z,4.60
2022-09-24T01:39:51.770Z,4.60
2022-09-24T01:42:18.246Z,4.50
2022-09-24T01:44:44.791Z,4.50
2022-09-24T01:47:11.314Z,4.50
2022-09-24T01:49:37.886Z,4.50
2022-09-24T01:52:04.516Z,4.50
2022-09-24T01:54:31.014Z,4.50
2022-09-24T01:56:57.554Z,4.50
2022-09-24T01:59:24.071Z,4.50
2022-09-24T02:01:50.701Z,4.50
2022-09-24T02:04:17.321Z,4.50
2022-09-24T02:06:43.822Z,4.50
2022-09-24T02:09:10.350Z,4.50
2022-09-24T02:11:36.881Z,4.50
2022-09-24T02:14:03.383Z,4.50
2022-09-24T02:16:29.954Z,4.50
2022-09-24T02:18:56.550Z,4.50
2022-09-24T02:21:23.158Z,4.50
2022-09-24T02:23:49.696Z,4.50
2022-09-24T02:26:16.174Z,4.40
2022-09-24T02:28:42.762Z,4.40
2022-09-24T02:31:09.351Z,4.40
2022-09-24T02:33:35.911Z,4.40
2022-09-24T02:36:02.473Z,4.30
2022-09-24T02:38:28.940Z,4.30
2022-09-24T02:40:55.484Z,4.30
2022-09-24T02:43:22.151Z,4.30
2022-09-24T02:45:48.852Z,4.30
2022-09-24T02:48:15.379Z,4.30
2022-09-24T02:50:41.940Z,4.40
2022-09-24T02:53:08.448Z,4.30
2022-09-24T02:55:35.087Z,4.40
2022-09-24T02:58:01.611Z,4.40
2022-09-24T03:00:28.187Z,4.40
2022-09-24T03:02:54.738Z,4.40
2022-09-24T03:05:21.238Z,4.40
2022-09-24T03:07:47.791Z,4.40
2022-09-24T03:10:14.271Z,4.40
2022-09-24T03:12:40.790Z,4.40
2022-09-24T03:15:07.295Z,4.40
2022-09-24T03:17:33.844Z,4.40
2022-09-24T03:20:00.490Z,4.40
2022-09-24T03:22:27.074Z,4.40
2022-09-24T03:24:53.558Z,4.40
2022-09-24T03:27:20.119Z,4.40
2022-09-24T03:29:46.661Z,4.40
2022-09-24T03:32:13.164Z,4.30
2022-09-24T03:34:39.682Z,4.40
2022-09-24T03:37:06.247Z,4.40
2022-09-24T03:39:32.775Z,4.40
2022-09-24T03:41:59.306Z,4.40
2022-09-24T03:44:25.875Z,4.40
2022-09-24T03:46:52.452Z,4.40
2022-09-24T03:49:19.087Z,4.40
2022-09-24T03:51:45.639Z,4.40
2022-09-24T03:54:12.156Z,4.50
2022-09-24T03:56:38.690Z,4.40
2022-09-24T03:59:05.180Z,4.40
2022-09-24T04:01:31.806Z,4.40
2022-09-24T04:03:58.375Z,4.40
2022-09-24T04:06:26.063Z,4.40
2022-09-24T04:08:52.713Z,4.40
2022-09-24T04:11:19.252Z,4.50
2022-09-24T04:13:45.804Z,4.40
2022-09-24T04:16:12.560Z,4.40
2022-09-24T04:18:39.554Z,4.40
2022-09-24T04:21:06.098Z,4.40
2022-09-24T04:23:32.647Z,4.40
2022-09-24T04:25:59.184Z,4.40
2022-09-24T04:28:25.716Z,4.30
2022-09-24T04:30:53.506Z,4.30
2022-09-24T04:33:20.063Z,4.20
2022-09-24T04:35:46.552Z,4.20
2022-09-24T04:38:13.119Z,4.20
2022-09-24T04:40:39.738Z,4.10
2022-09-24T04:43:06.446Z,4.10
2022-09-24T04:45:32.971Z,4.10
2022-09-24T04:47:59.524Z,4.10
2022-09-24T04:50:26.081Z,4.10
2022-09-24T04:52:52.622Z,4.10
2022-09-24T04:55:19.146Z,4.10
2022-09-24T04:57:45.631Z,4.10
2022-09-24T05:00:12.117Z,4.10
2022-09-24T05:02:38.699Z,4.00
2022-09-24T05:05:05.348Z,4.00
2022-09-24T05:07:31.918Z,4.10
2022-09-24T05:09:58.467Z,4.10
2022-09-24T05:12:25.090Z,4.10
2022-09-24T05:14:51.612Z,4.10
2022-09-24T05:17:18.121Z,4.10
2022-09-24T05:19:44.683Z,4.10
2022-09-24T05:22:11.251Z,4.10
2022-09-24T05:24:37.833Z,4.10
2022-09-24T05:27:04.574Z,4.20
2022-09-24T05:29:31.111Z,4.20
2022-09-24T05:31:57.688Z,4.20
2022-09-24T05:34:24.249Z,4.20
2022-09-24T05:36:50.775Z,4.20
2022-09-24T05:39:17.308Z,4.20
2022-09-24T05:41:43.873Z,4.20
2022-09-24T05:44:10.389Z,4.30
2022-09-24T05:46:37.076Z,4.30
2022-09-24T05:49:03.621Z,4.30
2022-09-24T05:51:30.166Z,4.40
2022-09-24T05:53:56.648Z,4.40
2022-09-24T05:56:23.194Z,4.40
2022-09-24T05:58:49.723Z,4.40
2022-09-24T06:01:16.339Z,4.50
2022-09-24T06:03:42.938Z,4.50
2022-09-24T06:06:09.483Z,4.50
2022-09-24T06:08:36.053Z,4.50
2022-09-24T06:11:02.597Z,4.50
2022-09-24T06:13:29.162Z,4.60
2022-09-24T06:15:55.745Z,4.60
2022-09-24T06:18:22.377Z,4.60
2022-09-24T06:20:48.971Z,4.70
2022-09-24T06:23:15.543Z,4.70
2022-09-24T06:25:42.197Z,4.80
2022-09-24T06:28:08.725Z,4.80
2022-09-24T06:30:35.294Z,4.80
2022-09-24T06:33:01.834Z,4.90
2022-09-24T06:35:28.334Z,4.90
2022-09-24T06:37:54.914Z,5.00
2022-09-24T06:40:21.523Z,5.00
2022-09-24T06:42:48.097Z,5.10
2022-09-24T06:45:14.668Z,5.10
2022-09-24T06:47:41.205Z,5.10
2022-09-24T06:50:07.735Z,5.20
2022-09-24T06:52:34.269Z,5.20
2022-09-24T06:55:00.793Z,5.30
2022-09-24T06:57:29.061Z,5.40
2022-09-24T06:59:55.718Z,5.50
2022-09-24T07:02:22.255Z,5.60
2022-09-24T07:04:48.816Z,5.70
2022-09-24T07:07:15.471Z,5.70
2022-09-24T07:09:41.999Z,5.80
2022-09-24T07:12:08.565Z,5.90
2022-09-24T07:14:35.095Z,6.00
2022-09-24T07:17:01.609Z,6.20
2022-09-24T07:19:28.129Z,6.20
2022-09-24T07:21:54.691Z,6.40
2022-09-24T07:24:21.214Z,6.50
2022-09-24T07:26:47.859Z,6.60
2022-09-24T07:29:14.440Z,6.70
2022-09-24T07:31:40.974Z,6.80
2022-09-24T07:34:07.596Z,7.00
2022-09-24T07:36:34.230Z,7.10
2022-09-24T07:39:00.788Z,7.20
2022-09-24T07:41:27.355Z,7.30
2022-09-24T07:43:53.883Z,7.40
2022-09-24T07:46:20.454Z,7.50
2022-09-24T07:48:47.024Z,7.70
2022-09-24T07:51:13.527Z,7.80
2022-09-24T07:53:40.106Z,7.80
2022-09-24T07:56:06.590Z,7.90
2022-09-24T07:58:33.223Z,8.00
2022-09-24T08:00:59.745Z,8.10
2022-09-24T08:03:26.331Z,8.20
2022-09-24T08:05:52.914Z,8.30
2022-09-24T08:08:19.399Z,8.50
2022-09-24T08:10:45.959Z,8.60
2022-09-24T08:13:12.606Z,8.80
2022-09-24T08:15:39.197Z,8.90
2022-09-24T08:18:05.814Z,9.00
2022-09-24T08:20:32.394Z,9.10
2022-09-24T08:22:58.926Z,9.30
2022-09-24T08:25:25.505Z,9.40
2022-09-24T08:27:51.999Z,9.50
2022-09-24T08:30:18.527Z,9.60
2022-09-24T08:32:45.022Z,9.80
2022-09-24T08:35:11.551Z,9.90
2022-09-24T08:37:38.114Z,10.10
2022-09-24T08:40:04.714Z,10.30
2022-09-24T08:42:31.208Z,10.40
2022-09-24T08:44:57.749Z,10.60
2022-09-24T08:47:24.295Z,10.80
2022-09-24T08:49:50.783Z,11.00
2022-09-24T08:52:17.317Z,11.20
2022-09-24T08:54:43.904Z,11.30
2022-09-24T08:57:10.464Z,11.50
2022-09-24T08:59:37.183Z,11.70
2022-09-24T09:02:03.851Z,11.80
2022-09-24T09:04:30.471Z,11.90
2022-09-24T09:06:57.043Z,12.10
2022-09-24T09:09:23.525Z,12.10
2022-09-24T09:11:50.074Z,12.30
2022-09-24T09:14:16.594Z,12.30
2022-09-24T09:16:43.118Z,12.40
2022-09-24T09:19:09.670Z,12.50
2022-09-24T09:21:36.336Z,12.60
2022-09-24T09:24:02.828Z,12.60
2022-09-24T09:26:29.343Z,12.70
2022-09-24T09:28:55.842Z,12.70
2022-09-24T09:31:22.435Z,12.80
2022-09-24T09:33:49.139Z,12.90
2022-09-24T09:36:15.683Z,12.90
2022-09-24T09:38:42.259Z,13.00
2022-09-24T09:41:08.825Z,13.00
2022-09-24T09:43:35.423Z,13.10
2022-09-24T09:46:02.055Z,13.20
2022-09-24T09:48:28.667Z,13.20
2022-09-24T09:50:55.193Z,13.30
2022-09-24T09:53:21.708Z,13.30
2022-09-24T09:55:48.278Z,13.40
2022-09-24T09:58:14.799Z,13.40
2022-09-24T10:00:41.301Z,13.50
2022-09-24T10:03:07.877Z,13.50
2022-09-24T10:05:34.496Z,13.50
2022-09-24T10:08:01.070Z,13.60
2022-09-24T10:10:27.581Z,13.70
2022-09-24T10:12:54.175Z,13.70
2022-09-24T10:15:20.687Z,13.70
2022-09-24T10:17:47.259Z,13.80
2022-09-24T10:20:13.839Z,13.90
2022-09-24T10:22:40.423Z,13.90
2022-09-24T10:25:06.962Z,14.00
2022-09-24T10:27:33.505Z,14.10
2022-09-24T10:30:00.147Z,14.20
2022-09-24T10:32:26.775Z,14.30
2022-09-24T10:34:53.350Z,14.30
2022-09-24T10:37:19.916Z,14.40
2022-09-24T10:39:46.470Z,14.50
2022-09-24T10:42:13.038Z,14.60
2022-09-24T10:44:39.554Z,14.70
2022-09-24T10:47:06.071Z,14.80
2022-09-24T10:49:32.596Z,14.90
2022-09-24T10:51:59.163Z,15.00
2022-09-24T10:54:25.676Z,15.00
2022-09-24T10:56:52.273Z,15.10
2022-09-24T10:59:18.842Z,15.20
2022-09-24T11:01:45.370Z,15.20
2022-09-24T11:04:11.999Z,15.30
2022-09-24T11:06:38.586Z,15.30
2022-09-24T11:09:05.139Z,15.40
2022-09-24T11:11:31.663Z,15.40
2022-09-24T11:13:58.186Z,15.40
2022-09-24T11:16:24.767Z,15.40
2022-09-24T11:18:51.386Z,15.50
2022-09-24T11:21:17.967Z,15.50
2022-09-24T11:23:44.489Z,15.50
2022-09-24T11:26:10.999Z,15.60
2022-09-24T11:28:37.533Z,15.60
2022-09-24T11:31:04.143Z,15.60
2022-09-24T11:33:30.687Z,15.60
2022-09-24T11:35:57.161Z,15.60
2022-09-24T11:38:23.713Z,15.60
2022-09-24T11:40:50.352Z,15.60
2022-09-24T11:43:16.897Z,15.60
2022-09-24T11:45:43.441Z,15.60
2022-09-24T11:48:11.830Z,15.60
2022-09-24T11:50:38.310Z,15.60
2022-09-24T11:53:04.836Z,15.50
2022-09-24T11:55:31.357Z,15.60
2022-09-24T11:57:57.885Z,15.50
2022-09-24T12:00:24.534Z,15.50
2022-09-24T12:02:51.076Z,15.60
2022-09-24T12:05:17.655Z,15.50
2022-09-24T12:07:44.245Z,15.50
2022-09-24T12:10:10.765Z,15.60
2022-09-24T12:12:37.334Z,15.60
2022-09-24T12:15:03.845Z,15.60
2022-09-24T12:17:30.435Z,15.60
2022-09-24T12:19:57.007Z,15.60
2022-09-24T12:22:23.584Z,15.60
2022-09-24T12:24:50.131Z,15.60
2022-09-24T12:27:16.674Z,15.70
2022-09-24T12:29:43.223Z,15.70
2022-09-24T12:32:09.790Z,15.70
2022-09-24T12:34:36.305Z,15.70
2022-09-24T12:37:02.811Z,15.70
2022-09-24T12:39:29.380Z,15.80
2022-09-24T12:41:55.946Z,15.80
2022-09-24T12:44:22.519Z,15.70
2022-09-24T12:46:49.043Z,15.80
2022-09-24T12:49:15.639Z,15.70
2022-09-24T12:51:42.197Z,15.80
2022-09-24T12:54:08.846Z,15.80
2022-09-24T12:56:35.413Z,15.80
2022-09-24T12:59:01.903Z,15.80
2022-09-24T13:01:28.590Z,15.80
2022-09-24T13:03:55.320Z,15.80
2022-09-24T13:06:21.804Z,15.80
2022-09-24T13:08:48.406Z,15.80
2022-09-24T13:11:14.930Z,15.80
2022-09-24T13:13:41.488Z,15.90
2022-09-24T13:16:08.052Z,15.90
2022-09-24T13:18:34.654Z,15.90
2022-09-24T13:21:01.130Z,15.90
2022-09-24T13:23:27.631Z,15.90
2022-09-24T13:25:54.136Z,15.90
2022-09-24T13:28:20.699Z,15.90
2022-09-24T13:30:47.299Z,16.00
2022-09-24T13:33:13.785Z,16.00
2022-09-24T13:35:40.335Z,16.00
2022-09-24T13:38:06.893Z,16.00
2022-09-24T13:40:33.489Z,16.00
2022-09-24T13:43:00.094Z,16.10
2022-09-24T13:45:26.632Z,16.00
2022-09-24T13:47:53.158Z,16.00
2022-09-24T13:50:19.675Z,16.00
2022-09-24T13:52:46.163Z,16.00
2022-09-24T13:55:12.658Z,16.00
2022-09-24T13:57:39.154Z,16.00
2022-09-24T14:00:05.697Z,16.00
2022-09-24T14:02:32.265Z,15.90
2022-09-24T14:04:58.823Z,16.00
2022-09-24T14:07:25.345Z,15.90
2022-09-24T14:09:51.831Z,15.90
2022-09-24T14:12:18.334Z,15.90
2022-09-24T14:14:44.894Z,15.90
2022-09-24T14:17:11.442Z,15.90
2022-09-24T14:19:37.967Z,15.90
2022-09-24T14:22:04.468Z,15.90
2022-09-24T14:24:31.038Z,15.90
2022-09-24T14:26:57.563Z,15.80
2022-09-24T14:29:24.049Z,15.70
2022-09-24T14:31:50.586Z,15.70
2022-09-24T14:34:17.105Z,15.60
2022-09-24T14:36:43.581Z,15.60
2022-09-24T14:39:10.143Z,15.60
2022-09-24T14:41:36.732Z,15.50
2022-09-24T14:44:05.506Z,15.50
2022-09-24T14:46:32.182Z,15.50
2022-09-24T14:48:58.705Z,15.40
2022-09-24T14:51:25.294Z,15.40
2022-09-24T14:53:51.814Z,15.40
2022-09-24T14:56:18.340Z,15.40
2022-09-24T14:58:45.008Z,15.40
2022-09-24T15:01:11.565Z,15.30
2022-09-24T15:03:38.041Z,15.30
2022-09-24T15:06:04.592Z,15.30
2022-09-24T15:08:31.088Z,15.30
2022-09-24T15:10:57.636Z,15.30
2022-09-24T15:13:24.151Z,15.20
2022-09-24T15:15:50.720Z,15.20
2022-09-24T15:18:17.268Z,15.20
2022-09-24T15:20:43.803Z,15.20
2022-09-24T15:23:11.607Z,15.20
2022-09-24T15:25:38.123Z,15.20
2022-09-24T15:28:04.649Z,15.10
2022-09-24T15:30:31.166Z,15.10
2022-09-24T15:32:57.685Z,15.10
2022-09-24T15:35:24.242Z,15.00
2022-09-24T15:37:53.175Z,15.00
2022-09-24T15:40:19.737Z,14.90
2022-09-24T15:42:46.310Z,14.90
2022-09-24T15:45:12.829Z,14.90
2022-09-24T15:47:39.353Z,14.80
2022-09-24T15:50:05.884Z,14.80
2022-09-24T15:52:32.417Z,14.70
2022-09-24T15:54:58.902Z,14.70
2022-09-24T15:57:25.425Z,14.70
2022-09-24T15:59:51.949Z,14.60
2022-09-24T16:02:18.588Z,14.60
2022-09-24T16:04:45.073Z,14.60
2022-09-24T16:07:11.576Z,14.50
2022-09-24T16:09:38.129Z,14.50
2022-09-24T16:12:04.638Z,14.50
2022-09-24T16:14:31.199Z,14.50
2022-09-24T16:16:57.744Z,14.50
2022-09-24T16:19:24.260Z,14.40
2022-09-24T16:21:50.834Z,14.40
2022-09-24T16:24:17.382Z,14.30
2022-09-24T16:26:43.907Z,14.30
2022-09-24T16:29:10.546Z,14.20
2022-09-24T16:31:37.109Z,14.20
2022-09-24T16:34:03.708Z,14.20
2022-09-24T16:36:30.337Z,14.10
2022-09-24T16:38:56.851Z,14.10
2022-09-24T16:41:23.392Z,14.10
2022-09-24T16:43:49.982Z,14.10
2022-09-24T16:46:20.498Z,14.10
2022-09-24T16:48:47.455Z,14.00
2022-09-24T16:51:14.000Z,14.00
2022-09-24T16:53:42.886Z,13.90
2022-09-24T16:56:11.523Z,13.90
2022-09-24T16:58:38.098Z,13.90
2022-09-24T17:01:04.670Z,13.90
2022-09-24T17:03:31.198Z,13.80
2022-09-24T17:05:57.779Z,13.80
2022-09-24T17:08:24.333Z,13.80
2022-09-24T17:10:51.585Z,13.80
2022-09-24T17:13:19.059Z,13.80
2022-09-24T17:15:45.630Z,13.80
2022-09-24T17:18:12.191Z,13.80
2022-09-24T17:20:38.706Z,13.80
2022-09-24T17:23:05.173Z,13.70
2022-09-24T17:25:31.825Z,13.70
2022-09-24T17:27:58.362Z,13.70
2022-09-24T17:30:24.842Z,13.70
2022-09-24T17:32:51.631Z,13.70
2022-09-24T17:35:18.377Z,13.60
2022-09-24T17:37:44.900Z,13.60
2022-09-24T17:40:11.597Z,13.60
2022-09-24T17:42:38.226Z,13.60
2022-09-24T17:45:04.806Z,13.50
2022-09-24T17:47:31.394Z,13.50
2022-09-24T17:49:58.063Z,13.50
2022-09-24T17:52:24.616Z,13.50
2022-09-24T17:54:51.197Z,13.50
2022-09-24T17:57:17.823Z,13.40
2022-09-24T17:59:44.472Z,13.40
2022-09-24T18:02:11.038Z,13.40
2022-09-24T18:04:37.613Z,13.30
2022-09-24T18:07:04.086Z,13.30
2022-09-24T18:09:30.851Z,13.30
2022-09-24T18:11:57.504Z,13.20
2022-09-24T18:14:24.036Z,13.30
2022-09-24T18:16:50.570Z,13.30
2022-09-24T18:19:17.169Z,13.20
2022-09-24T18:21:43.805Z,13.20
2022-09-24T18:24:10.409Z,13.20
2022-09-24T18:26:36.936Z,13.20
2022-09-24T18:29:03.475Z,13.20
2022-09-24T18:31:30.114Z,13.20
2022-09-24T18:33:56.741Z,13.10
2022-09-24T18:36:23.236Z,13.10
2022-09-24T18:38:49.766Z,13.10
2022-09-24T18:41:16.331Z,13.10
2022-09-24T18:43:42.846Z,13.10
2022-09-24T18:46:09.474Z,13.10
2022-09-24T18:48:36.031Z,13.00
2022-09-24T18:51:02.635Z,13.00
2022-09-24T18:53:29.207Z,13.00
2022-09-24T18:55:55.695Z,13.00
2022-09-24T18:58:22.205Z,13.00
2022-09-24T19:00:48.719Z,12.90
2022-09-24T19:03:15.393Z,12.90
2022-09-24T19:05:41.955Z,12.90
2022-09-24T19:08:08.474Z,12.90
2022-09-24T19:10:35.018Z,12.80
2022-09-24T19:13:01.593Z,12.80
2022-09-24T19:15:28.190Z,12.80
2022-09-24T19:17:54.737Z,12.80
2022-09-24T19:20:21.310Z,12.70
2022-09-24T19:22:47.839Z,12.70
2022-09-24T19:25:14.426Z,12.70
2022-09-24T19:27:41.031Z,12.70
2022-09-24T19:30:07.523Z,12.70
2022-09-24T19:32:34.039Z,12.70
2022-09-24T19:35:00.578Z,12.70
2022-09-24T19:37:27.293Z,12.70
2022-09-24T19:39:53.786Z,12.60
2022-09-24T19:42:20.335Z,12.70
2022-09-24T19:44:46.991Z,12.70
2022-09-24T19:47:13.555Z,12.60
2022-09-24T19:49:40.067Z,12.60
2022-09-24T19:52:06.657Z,12.60
2022-09-24T19:54:33.161Z,12.60
2022-09-24T19:56:59.722Z,12.60
2022-09-24T19:59:26.254Z,12.60
2022-09-24T20:01:52.820Z,12.60
2022-09-24T20:04:19.423Z,12.60
2022-09-24T20:06:45.899Z,12.60
2022-09-24T20:09:12.413Z,12.60
2022-09-24T20:11:38.920Z,12.60
2022-09-24T20:14:05.427Z,12.50
2022-09-24T20:16:32.019Z,12.50
2022-09-24T20:18:58.628Z,12.50
2022-09-24T20:21:25.112Z,12.50
2022-09-24T20:23:51.614Z,12.40
2022-09-24T20:26:18.145Z,12.40
2022-09-24T20:28:44.712Z,12.40
2022-09-24T20:31:11.329Z,12.40
2022-09-24T20:33:37.915Z,12.40
2022-09-24T20:36:09.981Z,12.40
2022-09-24T20:38:41.429Z,12.40
2022-09-24T20:41:08.027Z,12.40
2022-09-24T20:43:34.567Z,12.30
2022-09-24T20:46:01.315Z,12.30
2022-09-24T20:48:28.092Z,12.30
2022-09-24T20:50:54.770Z,12.30
2022-09-24T20:53:21.259Z,12.30
2022-09-24T20:55:47.827Z,12.30
2022-09-24T20:58:14.354Z,12.20
2022-09-24T21:00:40.834Z,12.20
2022-09-24T21:03:25.872Z,12.10
2022-09-24T21:05:53.851Z,12.10
2022-09-24T21:08:20.462Z,12.00
2022-09-24T21:10:46.975Z,12.10
2022-09-24T21:13:13.445Z,12.00
2022-09-24T21:15:40.006Z,12.00
2022-09-24T21:18:22.098Z,12.00
2022-09-24T21:20:49.514Z,12.00
2022-09-24T21:23:16.074Z,12.00
2022-09-24T21:25:57.650Z,11.90
2022-09-24T21:28:24.249Z,11.90
2022-09-24T21:30:50.817Z,11.90
2022-09-24T21:33:17.329Z,11.90
2022-09-24T21:35:43.874Z,11.90
2022-09-24T21:38:10.467Z,11.90
2022-09-24T21:40:37.025Z,11.90
2022-09-24T21:43:03.656Z,11.90
2022-09-24T21:45:30.173Z,11.90
2022-09-24T21:47:56.710Z,11.90
2022-09-24T21:50:23.246Z,11.90
2022-09-24T21:52:49.768Z,11.90
2022-09-24T21:55:16.479Z,11.90
2022-09-24T21:57:43.003Z,11.90
2022-09-24T22:00:09.522Z,11.90
2022-09-24T22:02:37.096Z,11.80
2022-09-24T22:05:06.372Z,11.80
2022-09-24T22:07:32.883Z,11.80
2022-09-24T22:09:59.581Z,11.80
2022-09-24T22:12:26.078Z,11.80
2022-09-24T22:14:52.549Z,11.80
2022-09-24T22:17:19.278Z,11.80
2022-09-24T22:19:45.799Z,11.80
2022-09-24T22:22:12.375Z,11.80
2022-09-24T22:24:38.906Z,11.80
2022-09-24T22:27:05.427Z,11.80
2022-09-24T22:29:31.968Z,11.80
2022-09-24T22:31:58.562Z,11.80
2022-09-24T22:34:25.136Z,11.90
2022-09-24T22:36:51.673Z,11.80
2022-09-24T22:39:18.257Z,11.80
2022-09-24T22:41:44.784Z,11.80
2022-09-24T22:44:11.390Z,11.80
2022-09-24T22:46:38.150Z,11.80
2022-09-24T22:49:04.755Z,11.80
2022-09-24T22:51:31.266Z,11.80
2022-09-24T22:53:57.847Z,11.80
2022-09-24T22:56:24.344Z,11.70
2022-09-24T22:58:50.835Z,11.70
2022-09-24T23:01:17.509Z,11.70
2022-09-24T23:03:44.147Z,11.70
2022-09-24T23:06:11.164Z,11.70
2022-09-24T23:08:37.698Z,11.70
2022-09-24T23:11:04.210Z,11.70
2022-09-24T23:13:30.769Z,11.70
2022-09-24T23:15:57.325Z,11.70
2022-09-24T23:18:23.950Z,11.70
2022-09-24T23:20:50.549Z,11.60
2022-09-24T23:23:17.115Z,11.70
2022-09-24T23:25:43.688Z,11.60
2022-09-24T23:28:10.173Z,11.60
2022-09-24T23:30:36.805Z,11.60
2022-09-24T23:33:03.392Z,11.60
2022-09-24T23:35:30.164Z,11.60
2022-09-24T23:37:56.738Z,11.70
2022-09-24T23:40:23.258Z,11.60
2022-09-24T23:42:49.846Z,11.60
2022-09-24T23:45:16.438Z,11.60
2022-09-24T23:47:42.934Z,11.60
2022-09-24T23:50:09.590Z,11.60
2022-09-24T23:52:36.071Z,11.60
2022-09-24T23:55:02.630Z,11.50
2022-09-24T23:57:29.255Z,11.50
2022-09-24T23:59:55.771Z,11.50
